Port Allen, Hawaii
Current Conditions -  °F | °C
As of 7:56 PM on Friday 28 Nov 2014 (Local Time) from PHBK Reporting Station
Clear Clear  
Wind Chill: 71°   Ceiling: Unl
Heat Index: 71°   Visibility: 10mi
Dew Point: 60°   Wind: 5mph
Humidity: 68%   Direction: 120°ESE
Pressure: 30.04"   Gusts: NA
Location:  21.9°N, 159.6°W
Report Text: PHBK 290556Z AUTO 12004KT 10SM CLR 22/16 A3004 RMK AO2 SLP174 T02170156 10278 20206 53017
Loading
Personal Weather Stations






























Interactive Weather Map New forecast layout! Learn more

10-Day Weather Forecast

Advertisements
Track Severe Weather on mobile